createdAt,value
2022-08-26T00:01:46.569Z,21.00
2022-08-26T00:04:09.756Z,21.10
2022-08-26T00:06:46.025Z,21.10
2022-08-26T00:08:52.809Z,21.10
2022-08-26T00:11:04.559Z,21.00
2022-08-26T00:13:25.903Z,21.10
2022-08-26T00:15:40.364Z,21.00
2022-08-26T00:17:48.146Z,21.00
2022-08-26T00:19:54.163Z,20.90
2022-08-26T00:22:02.898Z,20.90
2022-08-26T00:24:10.672Z,20.90
2022-08-26T00:26:15.331Z,20.80
2022-08-26T00:28:24.891Z,20.80
2022-08-26T00:30:43.868Z,20.70
2022-08-26T00:32:53.837Z,20.60
2022-08-26T00:35:01.423Z,20.60
2022-08-26T00:37:09.421Z,20.50
2022-08-26T00:39:19.485Z,20.50
2022-08-26T00:42:07.043Z,20.50
2022-08-26T00:44:22.838Z,20.50
2022-08-26T00:46:32.730Z,20.50
2022-08-26T00:48:39.169Z,20.50
2022-08-26T00:50:49.456Z,20.50
2022-08-26T00:53:01.825Z,20.50
2022-08-26T00:55:25.257Z,20.50
2022-08-26T00:57:41.274Z,20.50
2022-08-26T00:59:46.425Z,20.50
2022-08-26T01:01:58.097Z,20.50
2022-08-26T01:04:17.079Z,20.40
2022-08-26T01:06:27.894Z,20.30
2022-08-26T01:08:32.752Z,20.30
2022-08-26T01:10:37.976Z,20.20
2022-08-26T01:12:51.608Z,20.10
2022-08-26T01:17:42.535Z,19.90
2022-08-26T01:19:54.668Z,19.80
2022-08-26T01:22:17.584Z,19.80
2022-08-26T01:24:27.723Z,19.70
2022-08-26T01:26:47.262Z,19.70
2022-08-26T01:29:04.592Z,19.60
2022-08-26T01:31:22.494Z,19.60
2022-08-26T01:33:42.026Z,19.60
2022-08-26T01:35:47.948Z,19.60
2022-08-26T01:37:55.759Z,19.60
2022-08-26T01:40:05.405Z,19.50
2022-08-26T01:42:18.888Z,19.50
2022-08-26T01:44:33.316Z,19.50
2022-08-26T01:46:40.977Z,19.50
2022-08-26T01:48:49.863Z,19.40
2022-08-26T01:51:08.300Z,19.40
2022-08-26T01:53:25.564Z,19.40
2022-08-26T01:55:36.215Z,19.40
2022-08-26T01:57:48.619Z,19.40
2022-08-26T02:00:04.419Z,19.40
2022-08-26T02:02:12.260Z,19.40
2022-08-26T02:04:23.112Z,19.40
2022-08-26T02:06:32.904Z,19.40
2022-08-26T02:08:51.810Z,19.40
2022-08-26T02:11:03.031Z,19.40
2022-08-26T02:13:21.444Z,19.40
2022-08-26T02:15:50.337Z,19.40
2022-08-26T02:18:01.457Z,19.40
2022-08-26T02:20:22.301Z,19.30
2022-08-26T02:22:26.490Z,19.20
2022-08-26T02:25:03.627Z,19.20
2022-08-26T02:27:13.659Z,19.20
2022-08-26T02:29:42.592Z,19.10
2022-08-26T02:31:57.380Z,19.10
2022-08-26T02:34:21.841Z,19.10
2022-08-26T02:36:29.637Z,19.00
2022-08-26T02:38:37.250Z,19.00
2022-08-26T02:40:52.291Z,19.10
2022-08-26T02:48:38.450Z,19.00
2022-08-26T02:51:01.994Z,19.00
2022-08-26T02:53:11.208Z,18.90
2022-08-26T02:55:24.805Z,18.90
2022-08-26T02:58:09.216Z,19.00
2022-08-26T03:00:18.042Z,19.00
2022-08-26T03:02:22.385Z,19.00
2022-08-26T03:04:27.127Z,19.00
2022-08-26T03:09:05.596Z,19.00
2022-08-26T03:11:33.173Z,19.00
2022-08-26T03:14:08.028Z,19.00
2022-08-26T03:16:32.248Z,18.90
2022-08-26T03:19:06.529Z,18.90
2022-08-26T03:21:25.142Z,18.80
2022-08-26T03:23:42.156Z,18.80
2022-08-26T03:25:55.329Z,18.80
2022-08-26T03:28:34.197Z,18.90
2022-08-26T03:31:05.143Z,18.90
2022-08-26T03:33:15.986Z,18.90
2022-08-26T03:35:25.353Z,18.90
2022-08-26T03:37:38.092Z,18.90
2022-08-26T03:39:52.116Z,18.90
2022-08-26T03:42:00.339Z,18.90
2022-08-26T03:44:15.435Z,18.90
2022-08-26T03:46:30.669Z,18.90
2022-08-26T03:48:41.733Z,18.80
2022-08-26T03:50:44.710Z,18.80
2022-08-26T03:52:48.112Z,18.80
2022-08-26T03:54:51.329Z,18.80
2022-08-26T03:57:01.429Z,18.70
2022-08-26T03:59:07.622Z,18.70
2022-08-26T04:01:11.010Z,18.60
2022-08-26T04:03:18.542Z,18.50
2022-08-26T04:05:23.957Z,18.40
2022-08-26T04:07:26.843Z,18.40
2022-08-26T04:09:29.791Z,18.30
2022-08-26T04:11:35.706Z,18.30
2022-08-26T04:13:41.569Z,18.30
2022-08-26T04:15:44.808Z,18.30
2022-08-26T04:17:47.837Z,18.30
2022-08-26T04:19:51.674Z,18.30
2022-08-26T04:21:55.915Z,18.30
2022-08-26T04:23:59.696Z,18.30
2022-08-26T04:26:06.779Z,18.30
2022-08-26T04:28:10.651Z,18.30
2022-08-26T04:30:14.096Z,18.40
2022-08-26T04:32:17.119Z,18.40
2022-08-26T04:34:20.193Z,18.40
2022-08-26T04:36:23.829Z,18.40
2022-08-26T04:38:28.199Z,18.40
2022-08-26T04:40:31.227Z,18.40
2022-08-26T04:42:34.512Z,18.40
2022-08-26T04:44:38.879Z,18.40
2022-08-26T04:46:43.916Z,18.50
2022-08-26T04:48:47.830Z,18.50
2022-08-26T04:50:51.442Z,18.50
2022-08-26T04:52:54.991Z,18.50
2022-08-26T04:54:59.292Z,18.50
2022-08-26T04:57:02.829Z,18.60
2022-08-26T04:59:08.079Z,18.60
2022-08-26T05:01:20.501Z,18.60
2022-08-26T05:03:24.632Z,18.70
2022-08-26T05:05:27.738Z,18.70
2022-08-26T05:07:31.096Z,18.70
2022-08-26T05:09:34.850Z,18.70
2022-08-26T05:11:39.210Z,18.70
2022-08-26T05:13:42.997Z,18.70
2022-08-26T05:15:46.926Z,18.60
2022-08-26T05:17:51.624Z,18.60
2022-08-26T05:19:55.360Z,18.60
2022-08-26T05:21:58.363Z,18.60
2022-08-26T05:24:01.989Z,18.60
2022-08-26T05:26:09.448Z,18.60
2022-08-26T05:28:15.696Z,18.60
2022-08-26T05:30:18.796Z,18.60
2022-08-26T05:32:21.641Z,18.60
2022-08-26T05:34:30.146Z,18.60
2022-08-26T05:36:35.345Z,18.60
2022-08-26T05:38:38.236Z,18.60
2022-08-26T05:40:44.323Z,18.70
2022-08-26T05:42:48.382Z,18.70
2022-08-26T05:44:56.108Z,18.80
2022-08-26T05:46:59.169Z,18.90
2022-08-26T05:49:05.677Z,18.90
2022-08-26T05:51:11.057Z,19.00
2022-08-26T05:53:17.457Z,19.10
2022-08-26T05:55:21.287Z,19.20
2022-08-26T05:57:24.109Z,19.30
2022-08-26T05:59:26.975Z,19.40
2022-08-26T06:01:31.846Z,19.50
2022-08-26T06:03:40.600Z,19.60
2022-08-26T06:05:43.494Z,19.60
2022-08-26T06:08:05.161Z,19.80
2022-08-26T06:10:32.584Z,19.90
2022-08-26T06:12:35.784Z,20.00
2022-08-26T06:14:38.887Z,20.10
2022-08-26T06:16:45.072Z,20.10
2022-08-26T06:18:49.135Z,20.20
2022-08-26T06:20:57.294Z,20.20
2022-08-26T06:23:18.731Z,20.20
2022-08-26T06:25:40.388Z,20.20
2022-08-26T06:27:43.205Z,20.30
2022-08-26T06:29:47.053Z,20.40
2022-08-26T06:31:51.333Z,20.40
2022-08-26T06:33:55.032Z,20.50
2022-08-26T06:35:58.714Z,20.50
2022-08-26T06:38:02.287Z,20.60
2022-08-26T06:40:07.331Z,20.60
2022-08-26T06:42:11.808Z,20.70
2022-08-26T06:44:16.318Z,20.70
2022-08-26T06:46:22.541Z,20.80
2022-08-26T06:48:26.878Z,20.80
2022-08-26T06:50:29.828Z,20.80
2022-08-26T06:52:33.077Z,20.80
2022-08-26T06:54:41.475Z,20.80
2022-08-26T06:56:46.117Z,20.90
2022-08-26T06:58:51.032Z,20.90
2022-08-26T07:00:53.945Z,20.90
2022-08-26T07:02:56.984Z,20.90
2022-08-26T07:05:01.473Z,21.00
2022-08-26T07:07:04.448Z,21.00
2022-08-26T07:09:10.019Z,21.10
2022-08-26T07:11:13.965Z,21.10
2022-08-26T07:13:16.820Z,21.20
2022-08-26T07:15:35.709Z,21.30
2022-08-26T07:17:38.902Z,21.30
2022-08-26T07:19:43.360Z,21.30
2022-08-26T07:21:47.556Z,21.50
2022-08-26T07:23:55.426Z,21.50
2022-08-26T07:26:00.864Z,21.60
2022-08-26T07:28:04.344Z,21.70
2022-08-26T07:30:08.424Z,21.80
2022-08-26T07:32:13.074Z,21.90
2022-08-26T07:34:17.091Z,22.10
2022-08-26T07:36:23.051Z,22.20
2022-08-26T07:38:27.422Z,22.30
2022-08-26T07:40:30.434Z,22.40
2022-08-26T07:42:33.704Z,22.40
2022-08-26T07:44:39.561Z,22.50
2022-08-26T07:46:44.105Z,22.60
2022-08-26T07:48:48.363Z,22.80
2022-08-26T07:50:53.618Z,22.90
2022-08-26T07:52:56.672Z,23.10
2022-08-26T07:55:03.069Z,23.20
2022-08-26T07:57:08.377Z,23.30
2022-08-26T07:59:13.533Z,23.40
2022-08-26T08:01:17.330Z,23.50
2022-08-26T08:03:20.486Z,23.50
2022-08-26T08:05:33.443Z,23.60
2022-08-26T08:07:44.397Z,23.70
2022-08-26T08:09:49.371Z,23.90
2022-08-26T08:11:54.069Z,24.00
2022-08-26T08:13:57.007Z,24.20
2022-08-26T08:16:02.401Z,24.30
2022-08-26T08:20:29.800Z,24.40
2022-08-26T08:22:32.668Z,24.50
2022-08-26T08:24:36.312Z,24.50
2022-08-26T08:26:39.449Z,24.60
2022-08-26T08:28:43.712Z,24.70
2022-08-26T08:30:47.326Z,24.80
2022-08-26T08:32:50.235Z,24.80
2022-08-26T08:34:53.181Z,24.90
2022-08-26T08:36:57.096Z,25.10
2022-08-26T08:39:00.545Z,25.20
2022-08-26T08:41:05.633Z,25.40
2022-08-26T08:43:12.589Z,25.60
2022-08-26T08:45:25.716Z,25.80
2022-08-26T08:47:35.035Z,26.10
2022-08-26T08:49:38.412Z,26.40
2022-08-26T08:51:48.092Z,26.60
2022-08-26T08:53:55.045Z,26.70
2022-08-26T08:56:12.431Z,26.90
2022-08-26T08:58:20.501Z,27.00
2022-08-26T09:00:30.236Z,27.10
2022-08-26T09:02:39.109Z,27.10
2022-08-26T09:05:04.503Z,27.10
2022-08-26T09:07:12.956Z,27.20
2022-08-26T09:09:22.146Z,27.20
2022-08-26T09:11:25.013Z,27.20
2022-08-26T09:13:29.029Z,27.30
2022-08-26T09:15:45.919Z,27.30
2022-08-26T09:17:59.863Z,27.50
2022-08-26T09:20:10.614Z,27.60
2022-08-26T09:22:29.136Z,27.80
2022-08-26T09:24:38.425Z,27.90
2022-08-26T09:26:48.415Z,27.90
2022-08-26T09:28:59.250Z,27.90
2022-08-26T09:31:12.082Z,28.00
2022-08-26T09:33:19.241Z,28.00
2022-08-26T09:35:27.419Z,27.90
2022-08-26T09:37:43.346Z,28.00
2022-08-26T09:39:46.574Z,28.10
2022-08-26T09:42:04.003Z,28.40
2022-08-26T09:44:18.308Z,28.50
2022-08-26T09:46:28.798Z,28.60
2022-08-26T09:48:36.639Z,28.60
2022-08-26T09:50:50.218Z,28.60
2022-08-26T09:53:09.883Z,28.80
2022-08-26T09:55:23.971Z,29.00
2022-08-26T09:57:29.009Z,29.30
2022-08-26T09:59:31.983Z,29.60
2022-08-26T10:01:38.342Z,29.70
2022-08-26T10:03:41.960Z,29.80
2022-08-26T10:05:55.216Z,30.10
2022-08-26T10:08:00.276Z,30.10
2022-08-26T10:10:04.558Z,30.30
2022-08-26T10:12:11.898Z,30.30
2022-08-26T10:14:20.261Z,30.30
2022-08-26T10:16:28.570Z,30.30
2022-08-26T10:18:37.892Z,30.30
2022-08-26T10:20:52.256Z,30.20
2022-08-26T10:23:00.222Z,30.30
2022-08-26T10:25:08.846Z,30.40
2022-08-26T10:27:23.744Z,30.50
2022-08-26T10:29:34.255Z,30.50
2022-08-26T10:31:42.374Z,30.40
2022-08-26T10:33:47.249Z,30.40
2022-08-26T10:35:53.021Z,30.40
2022-08-26T10:37:59.475Z,30.40
2022-08-26T10:40:08.440Z,30.40
2022-08-26T10:42:20.905Z,30.50
2022-08-26T10:44:26.108Z,30.40
2022-08-26T10:46:40.958Z,30.50
2022-08-26T10:48:49.353Z,30.60
2022-08-26T10:50:57.686Z,30.60
2022-08-26T10:53:05.928Z,30.60
2022-08-26T10:55:22.041Z,30.70
2022-08-26T10:57:35.019Z,30.70
2022-08-26T10:59:49.821Z,30.90
2022-08-26T11:01:59.435Z,31.00
2022-08-26T11:04:28.472Z,31.10
2022-08-26T11:06:33.007Z,31.20
2022-08-26T11:08:47.563Z,31.20
2022-08-26T11:11:00.381Z,31.20
2022-08-26T11:13:04.694Z,31.30
2022-08-26T11:15:09.663Z,31.40
2022-08-26T11:17:12.647Z,31.40
2022-08-26T11:20:00.831Z,31.50
2022-08-26T11:22:09.340Z,31.70
2022-08-26T11:24:46.628Z,31.80
2022-08-26T11:26:55.954Z,31.90
2022-08-26T11:28:59.583Z,32.00
2022-08-26T11:31:09.879Z,32.10
2022-08-26T11:33:59.844Z,32.10
2022-08-26T11:36:11.497Z,32.10
2022-08-26T11:38:22.836Z,32.20
2022-08-26T11:40:28.567Z,32.30
2022-08-26T11:42:37.349Z,32.30
2022-08-26T11:44:49.117Z,32.30
2022-08-26T11:47:00.769Z,32.30
2022-08-26T11:49:06.524Z,32.50
2022-08-26T11:51:12.220Z,32.60
2022-08-26T11:53:19.365Z,32.60
2022-08-26T11:55:23.417Z,32.40
2022-08-26T11:57:28.703Z,32.20
2022-08-26T11:59:38.569Z,32.10
2022-08-26T12:01:45.841Z,32.10
2022-08-26T12:03:52.088Z,32.20
2022-08-26T12:05:56.028Z,32.40
2022-08-26T12:08:05.090Z,32.60
2022-08-26T12:10:23.753Z,32.90
2022-08-26T12:12:36.055Z,33.00
2022-08-26T12:14:39.653Z,32.90
2022-08-26T12:16:43.423Z,33.00
2022-08-26T12:18:46.436Z,33.00
2022-08-26T12:20:53.815Z,33.00
2022-08-26T12:22:58.752Z,33.00
2022-08-26T12:25:05.368Z,33.00
2022-08-26T12:27:17.984Z,32.80
2022-08-26T12:29:27.562Z,32.70
2022-08-26T12:31:33.654Z,32.90
2022-08-26T12:33:37.364Z,33.20
2022-08-26T12:35:41.269Z,33.30
2022-08-26T12:37:46.983Z,33.40
2022-08-26T12:39:49.887Z,33.30
2022-08-26T12:41:54.781Z,33.00
2022-08-26T12:43:59.020Z,32.70
2022-08-26T12:46:02.065Z,32.40
2022-08-26T12:48:10.704Z,32.20
2022-08-26T12:50:19.775Z,32.10
2022-08-26T12:52:30.739Z,31.80
2022-08-26T12:54:56.141Z,31.70
2022-08-26T12:57:10.704Z,31.50
2022-08-26T12:59:25.454Z,31.30
2022-08-26T13:01:28.695Z,31.30
2022-08-26T13:03:44.754Z,31.20
2022-08-26T13:05:47.984Z,31.10
2022-08-26T13:08:13.454Z,31.00
2022-08-26T13:10:36.107Z,30.80
2022-08-26T13:12:40.913Z,30.60
2022-08-26T13:14:45.018Z,30.60
2022-08-26T13:16:49.073Z,30.40
2022-08-26T13:18:54.539Z,30.10
2022-08-26T13:20:57.916Z,29.90
2022-08-26T13:23:01.187Z,29.80
2022-08-26T13:25:04.033Z,29.60
2022-08-26T13:27:08.663Z,29.40
2022-08-26T13:29:12.410Z,29.30
2022-08-26T13:31:17.339Z,29.20
2022-08-26T13:33:22.607Z,29.20
2022-08-26T13:35:25.467Z,29.00
2022-08-26T13:37:35.192Z,28.90
2022-08-26T13:39:39.320Z,28.80
2022-08-26T13:41:43.244Z,28.70
2022-08-26T13:43:46.400Z,28.50
2022-08-26T13:45:49.370Z,28.40
2022-08-26T13:47:53.685Z,28.40
2022-08-26T13:49:57.096Z,28.30
2022-08-26T13:52:00.158Z,28.20
2022-08-26T13:54:03.121Z,28.10
2022-08-26T13:56:10.886Z,28.10
2022-08-26T13:58:14.528Z,28.10
2022-08-26T14:00:18.425Z,28.10
2022-08-26T14:02:22.317Z,28.10
2022-08-26T14:04:27.275Z,28.20
2022-08-26T14:06:30.769Z,28.10
2022-08-26T14:08:33.657Z,28.00
2022-08-26T14:10:37.338Z,27.90
2022-08-26T14:12:40.812Z,27.90
2022-08-26T14:14:43.716Z,27.90
2022-08-26T14:16:58.862Z,27.90
2022-08-26T14:19:04.821Z,27.80
2022-08-26T14:21:10.203Z,27.90
2022-08-26T14:23:14.402Z,28.00
2022-08-26T14:25:18.451Z,28.20
2022-08-26T14:27:21.297Z,28.20
2022-08-26T14:29:24.577Z,28.20
2022-08-26T14:31:29.082Z,28.20
2022-08-26T14:33:34.905Z,28.10
2022-08-26T14:35:37.951Z,28.10
2022-08-26T14:37:42.522Z,28.20
2022-08-26T14:39:45.645Z,28.20
2022-08-26T14:41:53.975Z,28.20
2022-08-26T14:44:01.134Z,28.20
2022-08-26T14:46:05.167Z,28.30
2022-08-26T14:48:08.567Z,28.30
2022-08-26T14:50:11.644Z,28.40
2022-08-26T14:52:16.244Z,28.30
2022-08-26T14:54:20.800Z,28.30
2022-08-26T14:56:23.932Z,28.30
2022-08-26T14:58:28.561Z,28.30
2022-08-26T15:00:38.102Z,28.40
2022-08-26T15:02:41.243Z,28.40
2022-08-26T15:04:44.215Z,28.40
2022-08-26T15:06:47.289Z,28.40
2022-08-26T15:08:50.169Z,28.50
2022-08-26T15:10:54.341Z,28.70
2022-08-26T15:12:57.180Z,28.90
2022-08-26T15:15:00.246Z,29.30
2022-08-26T15:17:03.248Z,29.70
2022-08-26T15:19:06.911Z,30.10
2022-08-26T15:21:09.765Z,30.40
2022-08-26T15:23:14.618Z,30.50
2022-08-26T15:25:18.107Z,30.50
2022-08-26T15:27:22.284Z,30.20
2022-08-26T15:29:25.199Z,30.00
2022-08-26T15:31:31.175Z,30.20
2022-08-26T15:33:34.574Z,30.30
2022-08-26T15:35:38.465Z,30.50
2022-08-26T15:37:43.353Z,30.50
2022-08-26T15:39:46.208Z,30.40
2022-08-26T15:41:49.155Z,30.30
2022-08-26T15:43:53.348Z,30.00
2022-08-26T15:45:56.585Z,29.60
2022-08-26T15:48:02.933Z,29.40
2022-08-26T15:50:07.455Z,29.30
2022-08-26T15:52:10.347Z,29.10
2022-08-26T15:54:13.226Z,28.80
2022-08-26T15:56:16.185Z,28.70
2022-08-26T15:58:19.702Z,28.60
2022-08-26T16:00:27.083Z,28.40
2022-08-26T16:02:32.292Z,28.30
2022-08-26T16:04:35.499Z,28.30
2022-08-26T16:06:40.584Z,28.30
2022-08-26T16:08:43.630Z,28.20
2022-08-26T16:10:50.542Z,28.10
2022-08-26T16:12:53.735Z,28.00
2022-08-26T16:14:56.548Z,27.80
2022-08-26T16:17:00.689Z,27.60
2022-08-26T16:19:07.402Z,27.60
2022-08-26T16:21:15.232Z,27.50
2022-08-26T16:23:18.439Z,27.50
2022-08-26T16:25:21.607Z,27.50
2022-08-26T16:27:24.552Z,27.50
2022-08-26T16:29:28.121Z,27.50
2022-08-26T16:31:31.255Z,27.60
2022-08-26T16:33:35.512Z,27.60
2022-08-26T16:35:38.938Z,27.60
2022-08-26T16:37:42.108Z,27.50
2022-08-26T16:39:45.322Z,27.50
2022-08-26T16:41:48.166Z,27.50
2022-08-26T16:43:53.158Z,27.50
2022-08-26T16:45:56.200Z,27.60
2022-08-26T16:47:59.501Z,27.70
2022-08-26T16:50:04.301Z,27.80
2022-08-26T16:52:08.112Z,27.90
2022-08-26T16:54:10.982Z,27.90
2022-08-26T16:56:14.947Z,27.90
2022-08-26T16:58:18.655Z,27.90
2022-08-26T17:00:27.544Z,27.70
2022-08-26T17:02:30.421Z,27.50
2022-08-26T17:04:33.427Z,27.40
2022-08-26T17:06:38.232Z,27.20
2022-08-26T17:08:41.941Z,27.10
2022-08-26T17:10:44.738Z,27.00
2022-08-26T17:12:47.687Z,26.90
2022-08-26T17:14:50.499Z,26.80
2022-08-26T17:16:53.505Z,26.70
2022-08-26T17:18:57.698Z,26.60
2022-08-26T17:21:02.948Z,26.60
2022-08-26T17:23:07.304Z,26.50
2022-08-26T17:25:13.340Z,26.40
2022-08-26T17:27:16.277Z,26.40
2022-08-26T17:29:19.072Z,26.30
2022-08-26T17:31:23.187Z,26.20
2022-08-26T17:33:26.912Z,26.00
2022-08-26T17:35:30.401Z,25.90
2022-08-26T17:37:34.635Z,25.80
2022-08-26T17:39:42.473Z,25.70
2022-08-26T17:41:45.739Z,25.60
2022-08-26T17:43:48.676Z,25.60
2022-08-26T17:45:51.626Z,25.50
2022-08-26T17:47:55.870Z,25.50
2022-08-26T17:49:58.909Z,25.50
2022-08-26T17:52:02.213Z,25.40
2022-08-26T17:54:05.442Z,25.40
2022-08-26T17:56:14.952Z,25.30
2022-08-26T17:58:19.759Z,25.30
2022-08-26T18:00:26.451Z,25.20
2022-08-26T18:04:32.581Z,25.10
2022-08-26T18:06:35.749Z,25.00
2022-08-26T18:08:39.388Z,25.00
2022-08-26T18:10:42.651Z,25.00
2022-08-26T18:12:47.505Z,24.90
2022-08-26T18:14:50.451Z,24.80
2022-08-26T18:16:53.919Z,24.80
2022-08-26T18:18:56.732Z,24.70
2022-08-26T18:21:01.402Z,24.60
2022-08-26T18:23:04.632Z,24.50
2022-08-26T18:25:08.958Z,24.50
2022-08-26T18:27:11.762Z,24.40
2022-08-26T18:29:26.359Z,24.40
2022-08-26T18:31:30.527Z,24.30
2022-08-26T18:33:33.548Z,24.30
2022-08-26T18:35:39.530Z,24.20
2022-08-26T18:37:44.268Z,24.20
2022-08-26T18:39:47.391Z,24.10
2022-08-26T18:41:52.236Z,24.10
2022-08-26T18:43:55.769Z,24.10
2022-08-26T18:46:08.208Z,24.10
2022-08-26T18:48:11.336Z,24.00
2022-08-26T18:50:14.388Z,24.00
2022-08-26T18:52:17.236Z,24.00
2022-08-26T18:56:24.052Z,23.90
2022-08-26T18:58:26.969Z,23.90
2022-08-26T19:00:31.448Z,23.80
2022-08-26T19:02:35.893Z,23.80
2022-08-26T19:04:39.239Z,23.80
2022-08-26T19:06:42.399Z,23.70
2022-08-26T19:08:46.079Z,23.80
2022-08-26T19:10:52.719Z,23.70
2022-08-26T19:13:06.097Z,23.70
2022-08-26T19:15:10.724Z,23.70
2022-08-26T19:17:13.667Z,23.60
2022-08-26T19:19:18.294Z,23.60
2022-08-26T19:21:22.771Z,23.50
2022-08-26T19:23:31.826Z,23.50
2022-08-26T19:25:40.341Z,23.50
2022-08-26T19:27:43.881Z,23.50
2022-08-26T19:29:46.890Z,23.50
2022-08-26T19:31:50.181Z,23.40
2022-08-26T19:33:53.227Z,23.40
2022-08-26T19:35:57.510Z,23.40
2022-08-26T19:38:00.588Z,23.40
2022-08-26T19:40:04.125Z,23.40
2022-08-26T19:42:07.390Z,23.40
2022-08-26T19:44:13.397Z,23.40
2022-08-26T19:46:20.501Z,23.30
2022-08-26T19:48:23.775Z,23.30
2022-08-26T19:50:28.516Z,23.30
2022-08-26T19:52:33.071Z,23.40
2022-08-26T19:54:36.422Z,23.30
2022-08-26T19:56:46.902Z,23.30
2022-08-26T19:58:52.623Z,23.30
2022-08-26T20:00:55.732Z,23.30
2022-08-26T20:02:59.924Z,23.30
2022-08-26T20:05:04.071Z,23.30
2022-08-26T20:07:07.368Z,23.20
2022-08-26T20:09:11.877Z,23.20
2022-08-26T20:11:17.940Z,23.20
2022-08-26T20:13:21.835Z,23.20
2022-08-26T20:15:25.039Z,23.20
2022-08-26T20:17:31.801Z,23.20
2022-08-26T20:19:52.249Z,23.20
2022-08-26T20:21:55.173Z,23.10
2022-08-26T20:24:00.530Z,23.10
2022-08-26T20:26:05.437Z,23.10
2022-08-26T20:28:09.082Z,23.10
2022-08-26T20:30:13.431Z,23.00
2022-08-26T20:32:16.779Z,23.00
2022-08-26T20:34:20.597Z,23.00
2022-08-26T20:36:25.784Z,23.00
2022-08-26T20:38:28.768Z,22.90
2022-08-26T20:40:32.319Z,22.90
2022-08-26T20:42:37.497Z,22.90
2022-08-26T20:44:43.273Z,22.90
2022-08-26T20:46:59.055Z,22.90
2022-08-26T20:49:02.051Z,22.90
2022-08-26T20:51:09.187Z,22.90
2022-08-26T20:53:12.171Z,22.80
2022-08-26T20:55:15.077Z,22.80
2022-08-26T20:57:18.155Z,22.80
2022-08-26T20:59:22.389Z,22.80
2022-08-26T21:01:28.074Z,22.80
2022-08-26T21:03:31.122Z,22.70
2022-08-26T21:05:34.416Z,22.70
2022-08-26T21:07:37.341Z,22.70
2022-08-26T21:09:40.243Z,22.70
2022-08-26T21:11:45.618Z,22.70
2022-08-26T21:14:04.472Z,22.70
2022-08-26T21:16:12.170Z,22.70
2022-08-26T21:18:15.082Z,22.70
2022-08-26T21:20:19.400Z,22.70
2022-08-26T21:22:22.728Z,22.70
2022-08-26T21:24:25.615Z,22.70
2022-08-26T21:26:28.405Z,22.70
2022-08-26T21:28:31.323Z,22.60
2022-08-26T21:30:37.528Z,22.60
2022-08-26T21:32:41.819Z,22.60
2022-08-26T21:34:44.628Z,22.60
2022-08-26T21:36:48.625Z,22.50
2022-08-26T21:38:51.437Z,22.50
2022-08-26T21:41:00.352Z,22.50
2022-08-26T21:43:03.212Z,22.50
2022-08-26T21:45:07.570Z,22.40
2022-08-26T21:47:10.431Z,22.50
2022-08-26T21:49:16.627Z,22.40
2022-08-26T21:51:22.460Z,22.40
2022-08-26T21:53:25.439Z,22.40
2022-08-26T21:55:28.461Z,22.30
2022-08-26T21:57:31.527Z,22.30
2022-08-26T21:59:34.848Z,22.30
2022-08-26T22:01:38.872Z,22.30
2022-08-26T22:03:46.601Z,22.30
2022-08-26T22:05:52.458Z,22.30
2022-08-26T22:07:55.469Z,22.30
2022-08-26T22:09:58.448Z,22.30
2022-08-26T22:12:01.730Z,22.30
2022-08-26T22:14:04.578Z,22.30
2022-08-26T22:16:08.361Z,22.30
2022-08-26T22:18:11.378Z,22.30
2022-08-26T22:20:16.496Z,22.30
2022-08-26T22:22:21.116Z,22.20
2022-08-26T22:24:27.063Z,22.20
2022-08-26T22:26:33.642Z,22.20
2022-08-26T22:28:37.075Z,22.20
2022-08-26T22:30:41.797Z,22.20
2022-08-26T22:32:45.571Z,22.20
2022-08-26T22:34:48.510Z,22.20
2022-08-26T22:36:51.735Z,22.10
2022-08-26T22:38:56.888Z,22.10
2022-08-26T22:41:00.323Z,22.10
2022-08-26T22:43:03.563Z,22.10
2022-08-26T22:45:08.132Z,22.10
2022-08-26T22:47:10.893Z,22.10
2022-08-26T22:49:16.859Z,22.00
2022-08-26T22:51:20.091Z,22.00
2022-08-26T22:53:23.342Z,22.00
2022-08-26T22:55:27.522Z,21.90
2022-08-26T22:57:30.385Z,21.90
2022-08-26T22:59:33.651Z,21.90
2022-08-26T23:01:38.247Z,21.90
2022-08-26T23:03:41.159Z,21.90
2022-08-26T23:05:45.261Z,21.90
2022-08-26T23:07:48.919Z,21.90
2022-08-26T23:09:51.792Z,21.90
2022-08-26T23:11:56.555Z,21.90
2022-08-26T23:14:00.341Z,21.90
2022-08-26T23:16:09.044Z,21.90
2022-08-26T23:18:13.135Z,21.90
2022-08-26T23:20:17.163Z,21.90
2022-08-26T23:22:20.029Z,21.90
2022-08-26T23:24:23.227Z,21.80
2022-08-26T23:26:26.375Z,21.80
2022-08-26T23:28:31.920Z,21.80
2022-08-26T23:30:35.283Z,21.70
2022-08-26T23:32:38.102Z,21.70
2022-08-26T23:34:59.454Z,21.70
2022-08-26T23:37:03.175Z,21.70
2022-08-26T23:39:09.177Z,21.70
2022-08-26T23:41:12.030Z,21.70
2022-08-26T23:43:16.347Z,21.60
2022-08-26T23:45:21.456Z,21.60
2022-08-26T23:47:25.116Z,21.60
2022-08-26T23:49:28.633Z,21.60
2022-08-26T23:51:49.443Z,21.50
2022-08-26T23:53:52.753Z,21.50
2022-08-26T23:55:55.702Z,21.40
2022-08-26T23:57:58.626Z,21.40
